sensor_id;sensor_type;location;lat;lon;timestamp;pressure;altitude;pressure_sealevel;temperature;humidity
11124;BME280;5616;42.692;23.312;2024-02-14T00:01:28;95010.88;;;8.45;62.55
11124;BME280;5616;42.692;23.312;2024-02-14T00:03:54;95016.94;;;8.51;63.53
11124;BME280;5616;42.692;23.312;2024-02-14T00:06:19;95015.75;;;8.53;63.17
11124;BME280;5616;42.692;23.312;2024-02-14T00:08:45;95015.41;;;8.43;61.60
11124;BME280;5616;42.692;23.312;2024-02-14T00:11:10;95025.06;;;8.48;62.79
11124;BME280;5616;42.692;23.312;2024-02-14T00:13:36;95023.69;;;8.45;64.29
11124;BME280;5616;42.692;23.312;2024-02-14T00:16:02;95027.22;;;8.44;63.42
11124;BME280;5616;42.692;23.312;2024-02-14T00:18:28;95029.56;;;8.46;62.31
11124;BME280;5616;42.692;23.312;2024-02-14T00:20:54;95030.97;;;8.42;62.87
11124;BME280;5616;42.692;23.312;2024-02-14T00:23:20;95028.44;;;8.35;62.05
11124;BME280;5616;42.692;23.312;2024-02-14T00:25:45;95034.31;;;8.42;63.22
11124;BME280;5616;42.692;23.312;2024-02-14T00:28:11;95031.19;;;8.40;61.59
11124;BME280;5616;42.692;23.312;2024-02-14T00:30:36;95034.91;;;8.44;61.69
11124;BME280;5616;42.692;23.312;2024-02-14T00:33:12;95044.00;;;8.40;62.76
11124;BME280;5616;42.692;23.312;2024-02-14T00:35:37;95035.13;;;8.36;62.38
11124;BME280;5616;42.692;23.312;2024-02-14T00:38:03;95032.16;;;8.39;63.17
11124;BME280;5616;42.692;23.312;2024-02-14T00:40:29;95039.44;;;8.42;63.50
11124;BME280;5616;42.692;23.312;2024-02-14T00:42:54;95037.91;;;8.41;63.47
11124;BME280;5616;42.692;23.312;2024-02-14T00:45:19;95036.09;;;8.42;62.45
11124;BME280;5616;42.692;23.312;2024-02-14T00:47:45;95041.03;;;8.43;61.88
11124;BME280;5616;42.692;23.312;2024-02-14T00:50:10;95042.22;;;8.47;62.56
11124;BME280;5616;42.692;23.312;2024-02-14T00:52:39;95039.25;;;8.50;61.90
11124;BME280;5616;42.692;23.312;2024-02-14T00:55:05;95045.34;;;8.49;62.79
11124;BME280;5616;42.692;23.312;2024-02-14T00:57:32;95039.84;;;8.52;61.68
11124;BME280;5616;42.692;23.312;2024-02-14T00:59:57;95041.41;;;8.53;61.99
11124;BME280;5616;42.692;23.312;2024-02-14T01:02:23;95046.72;;;8.58;61.37
11124;BME280;5616;42.692;23.312;2024-02-14T01:04:49;95045.13;;;8.57;61.07
11124;BME280;5616;42.692;23.312;2024-02-14T01:07:14;95040.38;;;8.61;62.81
11124;BME280;5616;42.692;23.312;2024-02-14T01:09:40;95043.53;;;8.56;60.29
11124;BME280;5616;42.692;23.312;2024-02-14T01:12:05;95045.75;;;8.59;61.96
11124;BME280;5616;42.692;23.312;2024-02-14T01:14:32;95052.81;;;8.57;60.69
11124;BME280;5616;42.692;23.312;2024-02-14T01:16:57;95042.56;;;8.57;60.75
11124;BME280;5616;42.692;23.312;2024-02-14T01:19:23;95050.06;;;8.59;60.94
11124;BME280;5616;42.692;23.312;2024-02-14T01:21:54;95040.00;;;8.57;60.49
11124;BME280;5616;42.692;23.312;2024-02-14T01:24:20;95031.94;;;8.47;61.56
11124;BME280;5616;42.692;23.312;2024-02-14T01:26:47;95044.97;;;8.39;61.06
11124;BME280;5616;42.692;23.312;2024-02-14T01:29:12;95035.72;;;8.45;62.19
11124;BME280;5616;42.692;23.312;2024-02-14T01:31:38;95037.09;;;8.47;61.98
11124;BME280;5616;42.692;23.312;2024-02-14T01:34:04;95037.09;;;8.47;62.41
11124;BME280;5616;42.692;23.312;2024-02-14T01:36:29;95027.22;;;8.44;61.11
11124;BME280;5616;42.692;23.312;2024-02-14T01:38:55;95037.50;;;8.44;61.86
11124;BME280;5616;42.692;23.312;2024-02-14T01:41:20;95031.97;;;8.41;62.20
11124;BME280;5616;42.692;23.312;2024-02-14T01:43:49;95032.97;;;8.33;61.99
11124;BME280;5616;42.692;23.312;2024-02-14T01:46:15;95030.00;;;8.36;61.53
11124;BME280;5616;42.692;23.312;2024-02-14T01:48:51;95032.00;;;8.34;62.84
11124;BME280;5616;42.692;23.312;2024-02-14T01:51:19;95038.88;;;8.40;62.43
11124;BME280;5616;42.692;23.312;2024-02-14T01:53:47;95038.66;;;8.42;61.37
11124;BME280;5616;42.692;23.312;2024-02-14T01:56:13;95036.09;;;8.42;61.28
11124;BME280;5616;42.692;23.312;2024-02-14T01:58:38;95043.19;;;8.46;61.48
11124;BME280;5616;42.692;23.312;2024-02-14T02:01:04;95045.34;;;8.49;61.43
11124;BME280;5616;42.692;23.312;2024-02-14T02:03:30;95042.22;;;8.47;62.27
11124;BME280;5616;42.692;23.312;2024-02-14T02:05:58;95035.13;;;8.36;61.19
11124;BME280;5616;42.692;23.312;2024-02-14T02:08:24;95033.16;;;8.38;61.12
11124;BME280;5616;42.692;23.312;2024-02-14T02:10:50;95035.13;;;8.36;61.14
11124;BME280;5616;42.692;23.312;2024-02-14T02:13:35;95036.72;;;8.37;61.00
11124;BME280;5616;42.692;23.312;2024-02-14T02:16:22;95041.44;;;8.40;62.42
11124;BME280;5616;42.692;23.312;2024-02-14T02:19:07;95043.03;;;8.41;61.42
11124;BME280;5616;42.692;23.312;2024-02-14T02:21:54;95041.84;;;8.37;61.14
11124;BME280;5616;42.692;23.312;2024-02-14T02:24:20;95043.81;;;8.35;61.27
11124;BME280;5616;42.692;23.312;2024-02-14T02:26:45;95053.66;;;8.25;61.17
11124;BME280;5616;42.692;23.312;2024-02-14T02:29:31;95048.13;;;8.28;62.05
11124;BME280;5616;42.692;23.312;2024-02-14T02:31:58;95052.69;;;8.26;60.55
11124;BME280;5616;42.692;23.312;2024-02-14T02:34:23;95054.88;;;8.29;62.19
11124;BME280;5616;42.692;23.312;2024-02-14T02:36:49;95051.09;;;8.25;61.49
11124;BME280;5616;42.692;23.312;2024-02-14T02:39:35;95058.38;;;8.28;61.55
11124;BME280;5616;42.692;23.312;2024-02-14T02:42:21;95065.88;;;8.23;60.49
11124;BME280;5616;42.692;23.312;2024-02-14T02:45:07;95074.16;;;8.25;61.97
11124;BME280;5616;42.692;23.312;2024-02-14T02:47:53;95073.00;;;8.34;61.09
11124;BME280;5616;42.692;23.312;2024-02-14T02:50:38;95069.44;;;8.35;60.64
11124;BME280;5616;42.692;23.312;2024-02-14T02:53:24;95077.34;;;8.33;61.91
11124;BME280;5616;42.692;23.312;2024-02-14T02:56:09;95080.09;;;8.32;60.71
11124;BME280;5616;42.692;23.312;2024-02-14T02:58:34;95079.84;;;8.27;61.04
11124;BME280;5616;42.692;23.312;2024-02-14T03:01:00;95086.41;;;8.36;61.48
11124;BME280;5616;42.692;23.312;2024-02-14T03:03:46;95089.53;;;8.38;60.08
11124;BME280;5616;42.692;23.312;2024-02-14T03:06:25;95092.28;;;8.43;60.72
11124;BME280;5616;42.692;23.312;2024-02-14T03:09:05;95086.00;;;8.39;60.85
11124;BME280;5616;42.692;23.312;2024-02-14T03:11:51;95088.38;;;8.41;60.50
11124;BME280;5616;42.692;23.312;2024-02-14T03:14:36;95087.16;;;8.43;60.94
11124;BME280;5616;42.692;23.312;2024-02-14T03:17:21;95092.69;;;8.40;59.56
11124;BME280;5616;42.692;23.312;2024-02-14T03:19:47;95103.34;;;8.37;60.96
11124;BME280;5616;42.692;23.312;2024-02-14T03:22:13;95106.09;;;8.42;59.56
11124;BME280;5616;42.692;23.312;2024-02-14T03:24:38;95101.78;;;8.36;60.06
11124;BME280;5616;42.692;23.312;2024-02-14T03:27:04;95114.78;;;8.41;58.90
11124;BME280;5616;42.692;23.312;2024-02-14T03:29:30;95118.34;;;8.33;59.41
11124;BME280;5616;42.692;23.312;2024-02-14T03:31:56;95119.13;;;8.34;59.46
11124;BME280;5616;42.692;23.312;2024-02-14T03:34:24;95126.22;;;8.32;59.52
11124;BME280;5616;42.692;23.312;2024-02-14T03:36:50;95127.38;;;8.23;59.85
11124;BME280;5616;42.692;23.312;2024-02-14T03:39:16;95134.13;;;8.30;60.09
11124;BME280;5616;42.692;23.312;2024-02-14T03:41:42;95123.88;;;8.37;61.52
11124;BME280;5616;42.692;23.312;2024-02-14T03:44:08;95130.16;;;8.41;59.61
11124;BME280;5616;42.692;23.312;2024-02-14T03:46:34;95137.66;;;8.43;59.76
11124;BME280;5616;42.692;23.312;2024-02-14T03:49:00;95140.78;;;8.38;60.05
11124;BME280;5616;42.692;23.312;2024-02-14T03:51:26;95138.44;;;8.43;59.42
11124;BME280;5616;42.692;23.312;2024-02-14T03:53:52;95142.78;;;8.43;59.38
11124;BME280;5616;42.692;23.312;2024-02-14T03:56:17;95134.91;;;8.44;58.95
11124;BME280;5616;42.692;23.312;2024-02-14T03:58:43;95132.91;;;8.46;60.35
11124;BME280;5616;42.692;23.312;2024-02-14T04:01:09;95141.59;;;8.45;60.26
11124;BME280;5616;42.692;23.312;2024-02-14T04:03:34;95139.66;;;8.34;59.18
11124;BME280;5616;42.692;23.312;2024-02-14T04:06:00;95136.88;;;8.35;58.76
11124;BME280;5616;42.692;23.312;2024-02-14T04:08:26;95132.13;;;8.39;59.51
11124;BME280;5616;42.692;23.312;2024-02-14T04:10:51;95137.25;;;8.39;58.68
11124;BME280;5616;42.692;23.312;2024-02-14T04:13:19;95149.91;;;8.34;59.53
11124;BME280;5616;42.692;23.312;2024-02-14T04:15:45;95143.97;;;8.33;59.72
11124;BME280;5616;42.692;23.312;2024-02-14T04:18:13;95152.06;;;8.37;59.68
11124;BME280;5616;42.692;23.312;2024-02-14T04:20:43;95148.88;;;8.22;59.58
11124;BME280;5616;42.692;23.312;2024-02-14T04:23:09;95152.22;;;8.22;59.87
11124;BME280;5616;42.692;23.312;2024-02-14T04:25:35;95146.31;;;8.22;60.24
11124;BME280;5616;42.692;23.312;2024-02-14T04:28:02;95157.75;;;8.26;59.08
11124;BME280;5616;42.692;23.312;2024-02-14T04:30:28;95159.69;;;8.24;59.23
11124;BME280;5616;42.692;23.312;2024-02-14T04:33:06;95163.63;;;8.20;58.49
11124;BME280;5616;42.692;23.312;2024-02-14T04:35:33;95168.41;;;8.23;59.38
11124;BME280;5616;42.692;23.312;2024-02-14T04:37:59;95172.34;;;8.19;59.70
11124;BME280;5616;42.692;23.312;2024-02-14T04:40:24;95166.59;;;8.17;59.36
11124;BME280;5616;42.692;23.312;2024-02-14T04:42:50;95171.94;;;8.22;59.40
11124;BME280;5616;42.692;23.312;2024-02-14T04:45:15;95185.72;;;8.21;60.33
11124;BME280;5616;42.692;23.312;2024-02-14T04:47:52;95176.06;;;8.16;60.55
11124;BME280;5616;42.692;23.312;2024-02-14T04:50:17;95180.59;;;8.21;59.77
11124;BME280;5616;42.692;23.312;2024-02-14T04:52:44;95187.50;;;8.14;58.97
11124;BME280;5616;42.692;23.312;2024-02-14T04:55:09;95177.47;;;8.19;60.50
11124;BME280;5616;42.692;23.312;2024-02-14T04:57:35;95194.38;;;8.20;62.92
11124;BME280;5616;42.692;23.312;2024-02-14T05:00:03;95193.22;;;8.16;60.50
11124;BME280;5616;42.692;23.312;2024-02-14T05:02:31;95196.75;;;8.15;59.37
11124;BME280;5616;42.692;23.312;2024-02-14T05:04:57;95205.03;;;8.17;60.18
11124;BME280;5616;42.692;23.312;2024-02-14T05:07:22;95206.22;;;8.21;60.05
11124;BME280;5616;42.692;23.312;2024-02-14T05:09:48;95202.69;;;8.22;58.52
11124;BME280;5616;42.692;23.312;2024-02-14T05:12:16;95201.50;;;8.18;59.51
11124;BME280;5616;42.692;23.312;2024-02-14T05:14:42;95205.63;;;8.19;59.19
11124;BME280;5616;42.692;23.312;2024-02-14T05:17:08;95217.44;;;8.20;59.31
11124;BME280;5616;42.692;23.312;2024-02-14T05:19:33;95216.47;;;8.14;59.36
11124;BME280;5616;42.692;23.312;2024-02-14T05:21:59;95221.41;;;8.16;60.45
11124;BME280;5616;42.692;23.312;2024-02-14T05:24:24;95223.38;;;8.14;59.78
11124;BME280;5616;42.692;23.312;2024-02-14T05:26:53;95229.28;;;8.21;60.31
11124;BME280;5616;42.692;23.312;2024-02-14T05:29:18;95225.16;;;8.26;61.09
11124;BME280;5616;42.692;23.312;2024-02-14T05:31:46;95225.94;;;8.27;58.97
11124;BME280;5616;42.692;23.312;2024-02-14T05:34:14;95231.44;;;8.24;59.18
11124;BME280;5616;42.692;23.312;2024-02-14T05:36:40;95238.16;;;8.25;59.54
11124;BME280;5616;42.692;23.312;2024-02-14T05:39:07;95234.25;;;8.29;59.37
11124;BME280;5616;42.692;23.312;2024-02-14T05:41:33;95245.03;;;8.11;59.55
11124;BME280;5616;42.692;23.312;2024-02-14T05:43:59;95249.59;;;8.16;59.03
11124;BME280;5616;42.692;23.312;2024-02-14T05:46:25;95259.00;;;8.09;59.70
11124;BME280;5616;42.692;23.312;2024-02-14T05:48:51;95259.41;;;8.06;59.03
11124;BME280;5616;42.692;23.312;2024-02-14T05:51:18;95260.56;;;7.97;59.53
11124;BME280;5616;42.692;23.312;2024-02-14T05:53:43;95265.69;;;7.97;61.77
11124;BME280;5616;42.692;23.312;2024-02-14T05:56:09;95266.91;;;8.01;60.21
11124;BME280;5616;42.692;23.312;2024-02-14T05:58:34;95263.31;;;7.95;59.85
11124;BME280;5616;42.692;23.312;2024-02-14T06:01:01;95272.78;;;7.95;59.27
11124;BME280;5616;42.692;23.312;2024-02-14T06:03:26;95275.94;;;7.97;60.08
11124;BME280;5616;42.692;23.312;2024-02-14T06:05:52;95272.59;;;7.96;61.03
11124;BME280;5616;42.692;23.312;2024-02-14T06:08:18;95285.00;;;7.93;59.73
11124;BME280;5616;42.692;23.312;2024-02-14T06:10:44;95285.97;;;7.92;59.91
11124;BME280;5616;42.692;23.312;2024-02-14T06:13:10;95287.31;;;7.87;60.50
11124;BME280;5616;42.692;23.312;2024-02-14T06:15:35;95282.97;;;7.81;59.97
11124;BME280;5616;42.692;23.312;2024-02-14T06:18:01;95287.13;;;7.82;59.34
11124;BME280;5616;42.692;23.312;2024-02-14T06:20:26;95294.81;;;7.82;59.09
11124;BME280;5616;42.692;23.312;2024-02-14T06:22:52;95304.25;;;7.82;58.84
11124;BME280;5616;42.692;23.312;2024-02-14T06:25:17;95293.59;;;7.78;58.60
11124;BME280;5616;42.692;23.312;2024-02-14T06:27:54;95313.31;;;7.84;61.62
11124;BME280;5616;42.692;23.312;2024-02-14T06:30:20;95314.09;;;7.78;62.10
11124;BME280;5616;42.692;23.312;2024-02-14T06:32:45;95315.63;;;7.73;60.54
11124;BME280;5616;42.692;23.312;2024-02-14T06:35:11;95308.34;;;7.76;60.02
11124;BME280;5616;42.692;23.312;2024-02-14T06:37:36;95314.47;;;7.75;60.26
11124;BME280;5616;42.692;23.312;2024-02-14T06:40:02;95320.97;;;7.71;59.16
11124;BME280;5616;42.692;23.312;2024-02-14T06:42:29;95315.28;;;7.76;59.55
11124;BME280;5616;42.692;23.312;2024-02-14T06:44:54;95319.66;;;7.88;59.44
11124;BME280;5616;42.692;23.312;2024-02-14T06:47:20;95327.56;;;7.94;58.45
11124;BME280;5616;42.692;23.312;2024-02-14T06:49:46;95321.66;;;8.00;59.54
11124;BME280;5616;42.692;23.312;2024-02-14T06:52:11;95327.59;;;8.07;58.49
11124;BME280;5616;42.692;23.312;2024-02-14T06:54:37;95331.13;;;7.99;58.21
11124;BME280;5616;42.692;23.312;2024-02-14T06:57:02;95331.13;;;8.06;58.48
11124;BME280;5616;42.692;23.312;2024-02-14T06:59:28;95337.84;;;8.07;57.06
11124;BME280;5616;42.692;23.312;2024-02-14T07:01:53;95341.38;;;8.06;56.95
11124;BME280;5616;42.692;23.312;2024-02-14T07:04:21;95338.81;;;8.06;58.87
11124;BME280;5616;42.692;23.312;2024-02-14T07:06:52;95348.34;;;8.12;58.37
11124;BME280;5616;42.692;23.312;2024-02-14T07:09:18;95352.09;;;8.16;58.63
11124;BME280;5616;42.692;23.312;2024-02-14T07:11:43;95359.78;;;8.16;56.38
11124;BME280;5616;42.692;23.312;2024-02-14T07:14:11;95361.56;;;8.15;57.07
11124;BME280;5616;42.692;23.312;2024-02-14T07:16:36;95369.84;;;8.24;56.72
11124;BME280;5616;42.692;23.312;2024-02-14T07:19:02;95367.91;;;8.26;57.48
11124;BME280;5616;42.692;23.312;2024-02-14T07:21:28;95370.47;;;8.26;56.59
11124;BME280;5616;42.692;23.312;2024-02-14T07:23:54;95374.56;;;8.27;56.02
11124;BME280;5616;42.692;23.312;2024-02-14T07:26:19;95367.69;;;8.27;56.05
11124;BME280;5616;42.692;23.312;2024-02-14T07:28:45;95373.41;;;8.23;56.58
11124;BME280;5616;42.692;23.312;2024-02-14T07:31:11;95383.50;;;8.31;56.70
11124;BME280;5616;42.692;23.312;2024-02-14T07:33:37;95376.56;;;8.25;58.20
11124;BME280;5616;42.692;23.312;2024-02-14T07:36:02;95365.91;;;8.21;57.34
11124;BME280;5616;42.692;23.312;2024-02-14T07:38:28;95378.72;;;8.21;56.61
11124;BME280;5616;42.692;23.312;2024-02-14T07:40:53;95381.25;;;8.15;56.13
11124;BME280;5616;42.692;23.312;2024-02-14T07:43:23;95380.88;;;8.18;56.51
11124;BME280;5616;42.692;23.312;2024-02-14T07:45:48;95377.72;;;8.16;56.31
11124;BME280;5616;42.692;23.312;2024-02-14T07:48:14;95372.59;;;8.16;57.10
11124;BME280;5616;42.692;23.312;2024-02-14T07:50:39;95384.00;;;8.20;56.06
11124;BME280;5616;42.692;23.312;2024-02-14T07:53:05;95375.56;;;8.19;56.95
11124;BME280;5616;42.692;23.312;2024-02-14T07:55:31;95390.72;;;8.21;54.85
11124;BME280;5616;42.692;23.312;2024-02-14T07:57:57;95392.72;;;8.19;55.20
11124;BME280;5616;42.692;23.312;2024-02-14T08:00:22;95385.19;;;8.11;58.58
11124;BME280;5616;42.692;23.312;2024-02-14T08:02:48;95390.72;;;8.14;56.26
11124;BME280;5616;42.692;23.312;2024-02-14T08:05:14;95398.56;;;8.13;56.56
11124;BME280;5616;42.692;23.312;2024-02-14T08:07:39;95387.13;;;8.09;56.09
11124;BME280;5616;42.692;23.312;2024-02-14T08:10:05;95391.50;;;8.15;55.97
11124;BME280;5616;42.692;23.312;2024-02-14T08:12:31;95389.91;;;8.14;55.23
11124;BME280;5616;42.692;23.312;2024-02-14T08:14:57;95397.16;;;8.04;56.42
11124;BME280;5616;42.692;23.312;2024-02-14T08:17:22;95387.44;;;7.93;56.89
11124;BME280;5616;42.692;23.312;2024-02-14T08:19:48;95401.22;;;7.92;57.12
11124;BME280;5616;42.692;23.312;2024-02-14T08:22:13;95403.19;;;7.89;57.17
11124;BME280;5616;42.692;23.312;2024-02-14T08:24:39;95408.75;;;7.93;57.73
11124;BME280;5616;42.692;23.312;2024-02-14T08:27:06;95412.31;;;7.99;57.32
11124;BME280;5616;42.692;23.312;2024-02-14T08:29:32;95405.63;;;7.98;55.31
11124;BME280;5616;42.692;23.312;2024-02-14T08:31:57;95411.91;;;8.02;55.43
11124;BME280;5616;42.692;23.312;2024-02-14T08:34:23;95411.91;;;8.02;54.37
11124;BME280;5616;42.692;23.312;2024-02-14T08:36:49;95419.25;;;8.05;56.68
11124;BME280;5616;42.692;23.312;2024-02-14T08:39:14;95416.06;;;8.03;54.69
11124;BME280;5616;42.692;23.312;2024-02-14T08:41:40;95429.63;;;7.90;54.89
11124;BME280;5616;42.692;23.312;2024-02-14T08:44:06;95429.03;;;7.95;56.37
11124;BME280;5616;42.692;23.312;2024-02-14T08:46:32;95425.25;;;7.90;54.59
11124;BME280;5616;42.692;23.312;2024-02-14T08:49:00;95432.59;;;7.94;54.58
11124;BME280;5616;42.692;23.312;2024-02-14T08:51:28;95431.19;;;7.91;55.46
11124;BME280;5616;42.692;23.312;2024-02-14T08:53:54;95433.81;;;7.98;55.49
11124;BME280;5616;42.692;23.312;2024-02-14T08:56:22;95437.50;;;7.95;55.45
11124;BME280;5616;42.692;23.312;2024-02-14T08:58:48;95437.91;;;7.99;58.58
11124;BME280;5616;42.692;23.312;2024-02-14T09:01:14;95445.00;;;7.97;53.61
11124;BME280;5616;42.692;23.312;2024-02-14T09:03:40;95449.69;;;7.86;54.21
11124;BME280;5616;42.692;23.312;2024-02-14T09:06:08;95450.66;;;7.85;56.55
11124;BME280;5616;42.692;23.312;2024-02-14T09:08:34;95457.38;;;7.86;55.23
11124;BME280;5616;42.692;23.312;2024-02-14T09:10:59;95457.97;;;7.88;56.00
11124;BME280;5616;42.692;23.312;2024-02-14T09:13:25;95447.13;;;7.86;54.50
11124;BME280;5616;42.692;23.312;2024-02-14T09:15:52;95458.72;;;7.82;55.83
11124;BME280;5616;42.692;23.312;2024-02-14T09:18:19;95448.91;;;7.86;55.49
11124;BME280;5616;42.692;23.312;2024-02-14T09:20:45;95451.25;;;7.87;54.59
11124;BME280;5616;42.692;23.312;2024-02-14T09:23:15;95450.78;;;7.77;54.72
11124;BME280;5616;42.692;23.312;2024-02-14T09:25:44;95467.03;;;7.63;56.60
11124;BME280;5616;42.692;23.312;2024-02-14T09:28:10;95469.59;;;7.63;57.13
11124;BME280;5616;42.692;23.312;2024-02-14T09:30:36;95470.19;;;7.65;56.12
11124;BME280;5616;42.692;23.312;2024-02-14T09:33:02;95470.81;;;7.67;57.32
11124;BME280;5616;42.692;23.312;2024-02-14T09:35:27;95473.25;;;7.75;57.08
11124;BME280;5616;42.692;23.312;2024-02-14T09:37:52;95468.34;;;7.80;59.65
11124;BME280;5616;42.692;23.312;2024-02-14T09:40:18;95469.34;;;7.79;58.15
11124;BME280;5616;42.692;23.312;2024-02-14T09:42:46;95460.28;;;7.83;57.24
11124;BME280;5616;42.692;23.312;2024-02-14T09:45:16;95458.72;;;7.82;55.44
11124;BME280;5616;42.692;23.312;2024-02-14T09:47:42;95465.47;;;7.90;57.24
11124;BME280;5616;42.692;23.312;2024-02-14T09:50:09;95468.63;;;7.92;56.20
11124;BME280;5616;42.692;23.312;2024-02-14T09:52:36;95472.03;;;7.99;55.32
11124;BME280;5616;42.692;23.312;2024-02-14T09:55:03;95462.44;;;8.08;56.08
11124;BME280;5616;42.692;23.312;2024-02-14T09:57:31;95458.50;;;8.12;55.82
11124;BME280;5616;42.692;23.312;2024-02-14T09:59:58;95456.50;;;8.07;56.17
11124;BME280;5616;42.692;23.312;2024-02-14T10:02:25;95458.09;;;8.08;56.38
11124;BME280;5616;42.692;23.312;2024-02-14T10:04:50;95456.53;;;8.14;53.50
11124;BME280;5616;42.692;23.312;2024-02-14T10:07:16;95449.47;;;8.16;55.16
11124;BME280;5616;42.692;23.312;2024-02-14T10:09:42;95460.53;;;8.23;53.77
11124;BME280;5616;42.692;23.312;2024-02-14T10:12:08;95453.72;;;8.30;54.80
11124;BME280;5616;42.692;23.312;2024-02-14T10:14:34;95460.16;;;8.26;52.13
11124;BME280;5616;42.692;23.312;2024-02-14T10:17:02;95456.53;;;8.14;55.26
11124;BME280;5616;42.692;23.312;2024-02-14T10:19:28;95452.50;;;7.98;54.12
11124;BME280;5616;42.692;23.312;2024-02-14T10:22:00;95458.94;;;7.87;52.73
11124;BME280;5616;42.692;23.312;2024-02-14T10:24:28;95458.38;;;7.92;53.69
11124;BME280;5616;42.692;23.312;2024-02-14T10:26:54;95451.72;;;7.98;56.11
11124;BME280;5616;42.692;23.312;2024-02-14T10:29:23;95450.53;;;7.94;55.37
11124;BME280;5616;42.692;23.312;2024-02-14T10:31:49;95453.09;;;7.94;55.41
11124;BME280;5616;42.692;23.312;2024-02-14T10:34:16;95439.28;;;7.95;54.18
11124;BME280;5616;42.692;23.312;2024-02-14T10:36:43;95442.25;;;7.98;54.00
11124;BME280;5616;42.692;23.312;2024-02-14T10:39:09;95446.22;;;8.01;53.53
11124;BME280;5616;42.692;23.312;2024-02-14T10:41:36;95448.25;;;8.12;54.32
11124;BME280;5616;42.692;23.312;2024-02-14T10:44:03;95452.63;;;8.18;52.72
11124;BME280;5616;42.692;23.312;2024-02-14T10:46:32;95444.34;;;8.16;53.15
11124;BME280;5616;42.692;23.312;2024-02-14T10:49:05;95447.13;;;8.21;52.21
11124;BME280;5616;42.692;23.312;2024-02-14T10:51:32;95442.75;;;8.15;53.16
11124;BME280;5616;42.692;23.312;2024-02-14T10:54:03;95443.56;;;8.22;53.10
11124;BME280;5616;42.692;23.312;2024-02-14T10:56:29;95445.53;;;8.20;53.92
11124;BME280;5616;42.692;23.312;2024-02-14T10:59:04;95455.31;;;8.10;54.35
11124;BME280;5616;42.692;23.312;2024-02-14T11:01:31;95456.53;;;8.14;52.00
11124;BME280;5616;42.692;23.312;2024-02-14T11:04:01;95457.09;;;8.09;51.43
11124;BME280;5616;42.692;23.312;2024-02-14T11:06:27;95457.31;;;8.08;51.39
11124;BME280;5616;42.692;23.312;2024-02-14T11:09:01;95462.03;;;8.11;53.25
11124;BME280;5616;42.692;23.312;2024-02-14T11:11:30;95453.00;;;8.15;53.24
11124;BME280;5616;42.692;23.312;2024-02-14T11:13:57;95454.19;;;8.12;52.60
11124;BME280;5616;42.692;23.312;2024-02-14T11:16:28;95457.34;;;8.14;52.36
11124;BME280;5616;42.692;23.312;2024-02-14T11:19:14;95454.25;;;8.25;53.87
11124;BME280;5616;42.692;23.312;2024-02-14T11:21:42;95453.06;;;8.28;53.94
11124;BME280;5616;42.692;23.312;2024-02-14T11:24:10;95448.31;;;8.25;53.76
11124;BME280;5616;42.692;23.312;2024-02-14T11:26:40;95454.38;;;8.17;52.27
11124;BME280;5616;42.692;23.312;2024-02-14T11:29:14;95459.34;;;8.19;53.48
11124;BME280;5616;42.692;23.312;2024-02-14T11:31:40;95451.19;;;8.09;52.91
11124;BME280;5616;42.692;23.312;2024-02-14T11:34:05;95458.50;;;8.12;52.49
11124;BME280;5616;42.692;23.312;2024-02-14T11:36:32;95453.38;;;8.12;51.92
11124;BME280;5616;42.692;23.312;2024-02-14T11:38:58;95459.31;;;8.12;53.18
11124;BME280;5616;42.692;23.312;2024-02-14T11:41:27;95453.41;;;8.18;53.67
11124;BME280;5616;42.692;23.312;2024-02-14T11:43:53;95456.56;;;8.20;53.44
11124;BME280;5616;42.692;23.312;2024-02-14T11:46:18;95451.84;;;8.24;53.14
11124;BME280;5616;42.692;23.312;2024-02-14T11:48:44;95451.47;;;8.27;52.89
11124;BME280;5616;42.692;23.312;2024-02-14T11:51:11;95454.22;;;8.19;52.73
11124;BME280;5616;42.692;23.312;2024-02-14T11:53:36;95446.72;;;8.24;52.70
11124;BME280;5616;42.692;23.312;2024-02-14T11:56:05;95452.94;;;8.36;52.86
11124;BME280;5616;42.692;23.312;2024-02-14T11:58:30;95449.59;;;8.42;52.20
11124;BME280;5616;42.692;23.312;2024-02-14T12:00:56;95448.06;;;8.48;52.24
11124;BME280;5616;42.692;23.312;2024-02-14T12:03:22;95443.72;;;8.48;52.09
11124;BME280;5616;42.692;23.312;2024-02-14T12:05:53;95446.44;;;8.40;52.06
11124;BME280;5616;42.692;23.312;2024-02-14T12:08:19;95445.63;;;8.33;50.38
11124;BME280;5616;42.692;23.312;2024-02-14T12:10:46;95437.72;;;8.34;53.95
11124;BME280;5616;42.692;23.312;2024-02-14T12:13:14;95447.25;;;8.41;52.60
11124;BME280;5616;42.692;23.312;2024-02-14T12:15:50;95452.41;;;8.47;52.67
11124;BME280;5616;42.692;23.312;2024-02-14T12:18:17;95443.72;;;8.48;51.68
11124;BME280;5616;42.692;23.312;2024-02-14T12:20:45;95450.47;;;8.56;51.61
11124;BME280;5616;42.692;23.312;2024-02-14T12:23:15;95435.50;;;8.59;52.47
11124;BME280;5616;42.692;23.312;2024-02-14T12:25:43;95439.25;;;8.63;51.48
11124;BME280;5616;42.692;23.312;2024-02-14T12:28:16;95437.84;;;8.67;51.55
11124;BME280;5616;42.692;23.312;2024-02-14T12:30:53;95429.59;;;8.65;52.01
11124;BME280;5616;42.692;23.312;2024-02-14T12:33:21;95438.25;;;8.64;52.71
11124;BME280;5616;42.692;23.312;2024-02-14T12:35:49;95435.94;;;8.76;51.87
11124;BME280;5616;42.692;23.312;2024-02-14T12:38:16;95435.94;;;8.82;50.75
11124;BME280;5616;42.692;23.312;2024-02-14T12:40:42;95442.25;;;8.80;52.63
11124;BME280;5616;42.692;23.312;2024-02-14T12:43:10;95430.81;;;8.82;51.28
11124;BME280;5616;42.692;23.312;2024-02-14T12:45:39;95424.50;;;8.85;51.09
11124;BME280;5616;42.692;23.312;2024-02-14T12:48:06;95436.75;;;8.90;49.89
11124;BME280;5616;42.692;23.312;2024-02-14T12:50:34;95438.31;;;8.91;50.82
11124;BME280;5616;42.692;23.312;2024-02-14T12:53:06;95438.50;;;8.89;51.04
11124;BME280;5616;42.692;23.312;2024-02-14T12:55:33;95437.75;;;8.89;49.83
11124;BME280;5616;42.692;23.312;2024-02-14T12:57:59;95441.47;;;8.93;50.04
11124;BME280;5616;42.692;23.312;2024-02-14T13:00:25;95429.66;;;8.98;50.91
11124;BME280;5616;42.692;23.312;2024-02-14T13:02:51;95438.56;;;9.02;49.97
11124;BME280;5616;42.692;23.312;2024-02-14T13:05:17;95440.91;;;9.04;49.18
11124;BME280;5616;42.692;23.312;2024-02-14T13:07:43;95442.09;;;9.08;49.88
11124;BME280;5616;42.692;23.312;2024-02-14T13:10:09;95446.66;;;8.99;47.80
11124;BME280;5616;42.692;23.312;2024-02-14T13:12:36;95448.19;;;8.94;49.52